Home > Products > Valid Products > MTR

000
SAUS43 KDDC 211000
MTRP28
METAR KP28 210956Z AUTO 10004KT 16/14 A3006 RMK AO1 SLP167 T01560139
$





000
SAUS43 KDDC 210900
MTRP28
METAR KP28 210856Z AUTO 00000KT 12/09 A3006 RMK AO1 SLP170 T01170094
58002 $





000
SAUS43 KDDC 210800
MTRP28
METAR KP28 210756Z AUTO 00000KT 12/09 A3007 RMK AO1 SLP171 T01170089
$





000
SAUS43 KDDC 210700
MTRP28
METAR KP28 210656Z AUTO 00000KT 12/09 A3007 RMK AO1 SLP172 T01170089
$





000
SAUS43 KDDC 210600
MTRP28
METAR KP28 210556Z AUTO 00000KT 13/09 A3007 RMK AO1 SLP172 T01330089
10228 20122 402780100 58002 $





000
SAUS43 KDDC 210500
MTRP28
METAR KP28 210456Z AUTO 00000KT 12/09 A3007 RMK AO1 SLP174 T01220089
$





000
SAUS43 KDDC 210400
MTRP28
METAR KP28 210356Z AUTO 00000KT 15/09 A3008 RMK AO1 SLP177 T01500089





000
SAUS43 KDDC 210400
MTRP28
METAR KP28 210356Z AUTO 00000KT 15/09 A3008 RMK AO1 SLP177 T01500089





000
SAUS43 KDDC 210300
MTRP28
METAR KP28 210256Z AUTO 00000KT 14/09 A3007 RMK AO1 SLP178 T01440094
51011





000
SAUS43 KDDC 210200
MTRP28
METAR KP28 210156Z AUTO 01004KT 16/09 A3006 RMK AO1 SLP177 T01560094





000
SAUS43 KDDC 210200
MTRP28
METAR KP28 210156Z AUTO 01004KT 16/09 A3006 RMK AO1 SLP177 T01560094





000
SAUS43 KDDC 210100
MTRP28
METAR KP28 210056Z AUTO 08004KT 21/08 A3005 RMK AO1 SLP172 T02060083





000
SAUS43 KDDC 210000
MTRP28
METAR KP28 202356Z AUTO 10004KT 23/08 A3004 RMK AO1 SLP166 T02280078
10278 20228 53005





000
SAUS43 KDDC 202300
MTRP28
METAR KP28 202256Z AUTO 07007KT 25/09 A3003 RMK AO1 SLP161 T02500089





000
SAUS43 KDDC 202200
MTRP28
METAR KP28 202156Z AUTO 07007KT 27/07 A3003 RMK AO1 SLP158 T02720072





000
SAUS43 KDDC 202200
MTRP28
METAR KP28 202156Z AUTO 07007KT 27/07 A3003 RMK AO1 SLP158 T02720072





000
SAUS43 KDDC 202100
MTRP28
METAR KP28 202056Z AUTO 07010KT 27/07 A3003 RMK AO1 SLP156 T02720072
56012





000
SAUS43 KDDC 202000
MTRP28
METAR KP28 201956Z AUTO 07010G16KT 27/07 A3003 RMK AO1 SLP157
T02720072





000
SAUS43 KDDC 201900
MTRP28
METAR KP28 201856Z AUTO 09011KT 27/09 A3005 RMK AO1 SLP162 T02720089





000
SAUS43 KDDC 201800
MTRP28
METAR KP28 201756Z AUTO 07008KT 25/14 A3006 RMK AO1 SLP169 T02500139
10250 20100 58004





000
SAUS43 KDDC 201700
MTRP28
METAR KP28 201656Z AUTO 06010KT 23/14 A3008 RMK AO1 SLP175 T02330144





000
SAUS43 KDDC 201603 COR
MTRP28
METAR KP28 201556Z AUTO 06011KT 21/14 A3008 RMK AO1 SLP177 T02060144





000
SAUS43 KDDC 201600 COR
MTRP28
METAR KP28 201556Z AUTO 06011KT 21/14 A3008 RMK AO1 SLP177 T02060144





000
SAUS43 KDDC 201500
MTRP28
METAR KP28 201456Z AUTO 00000KT 17/14 A3008 RMK AO1 SLP177 T01670144
51018





000
SAUS43 KDDC 201400
MTRP28
METAR KP28 201356Z AUTO 00000KT 12/12 A3006 RMK AO1 SLP175 T01170117





000
SAUS43 KDDC 201300
MTRP28
METAR KP28 201256Z AUTO 01003KT 10/10 A3004 RMK AO1 SLP168 T01000100





000
SAUS43 KDDC 201200
MTRP28
METAR KP28 201156Z AUTO 00000KT 10/10 A3002 RMK AO1 SLP160 T01000100
10156 20100 53008





000
SAUS43 KDDC 201100
MTRP28
METAR KP28 201056Z AUTO 00000KT 11/11 A3001 RMK AO1 SLP156 T01110111
$





000
SAUS43 KDDC 201000
MTRP28
METAR KP28 200956Z AUTO 00000KT 14/13 A3000 RMK AO1 SLP150 T01390133
$





000
SAUS43 KDDC 201000
MTRP28
METAR KP28 200956Z AUTO 00000KT 14/13 A3000 RMK AO1 SLP150 T01390133
$





000
SAUS43 KDDC 200900
MTRP28
METAR KP28 200856Z AUTO 13004KT 14/13 A3000 RMK AO1 SLP149 T01390128
56005 $





000
SAUS43 KDDC 200800
MTRP28
METAR KP28 200756Z AUTO 14004KT 14/13 A3000 RMK AO1 SLP153 T01440133
$





000
SAUS43 KDDC 200700
MTRP28
METAR KP28 200656Z AUTO 15005KT 15/13 A3000 RMK AO1 SLP153 T01500133
$





000
SAUS43 KDDC 200600
MTRP28
METAR KP28 200556Z AUTO 15005KT 16/13 A3001 RMK AO1 SLP155 T01560133
10206 20156 402330078 51005 $





000
SAUS43 KDDC 200500
MTRP28
METAR KP28 200456Z AUTO 14006KT 16/13 A3001 RMK AO1 SLP155 T01610133
$





000
SAUS43 KDDC 200400
MTRP28
METAR KP28 200356Z AUTO 15007KT 17/14 A3001 RMK AO1 SLP155 T01720139
$





000
SAUS43 KDDC 200300
MTRP28
METAR KP28 200256Z AUTO 16005KT 18/14 A3000 RMK AO1 SLP153 T01780139
51006 $





000
SAUS43 KDDC 200200
MTRP28
METAR KP28 200156Z AUTO 14006KT 18/14 A2999 RMK AO1 SLP152 T01830139
$





000
SAUS43 KDDC 200100
MTRP28
METAR KP28 200056Z AUTO 15006KT 19/14 A2998 RMK AO1 SLP149 T01940139
$





000
SAUS43 KDDC 200000
MTRP28
METAR KP28 192356Z AUTO 15006KT 21/13 A2998 RMK AO1 SLP145 T02060133
10233 20178 55005 $





000
SAUS43 KDDC 200000
MTRP28
METAR KP28 192356Z AUTO 15006KT 21/13 A2998 RMK AO1 SLP145 T02060133
10233 20178 55005 $





000
SAUS43 KDDC 192300
MTRP28
METAR KP28 192256Z AUTO 17009KT 23/13 A2997 RMK AO1 SLP142 T02280133
$





000
SAUS43 KDDC 192300
MTRP28
METAR KP28 192256Z AUTO 17009KT 23/13 A2997 RMK AO1 SLP142 T02280133
$





000
SAUS43 KDDC 192200
MTRP28
METAR KP28 192156Z AUTO 17006KT 23/12 A2998 RMK AO1 SLP144 T02280122
$





000
SAUS43 KDDC 192100
MTRP28
METAR KP28 192056Z AUTO 20010G15KT 22/12 A2999 RMK AO1 SLP150
T02170117 56034 $





000
SAUS43 KDDC 192000
MTRP28
METAR KP28 191956Z AUTO 17008KT 19/ A3001 RMK AO1 SLP157 T0189 $





000
SAUS43 KDDC 191900
MTRP28
METAR KP28 191856Z AUTO 17010KT 18/ A3005 RMK AO1 SLP173 T0183 $





000
SAUS43 KDDC 191800
MTRP28
METAR KP28 191756Z AUTO 17009KT 18/ A3010 RMK AO1 SLP189 T0183 10183
20094 58014 $





000
SAUS43 KDDC 191700
MTRP28
METAR KP28 191656Z AUTO 19010KT 16/ A3012 RMK AO1 SLP197 T0156 $





000
SAUS43 KDDC 191600
MTRP28
METAR KP28 191556Z AUTO VRB06KT 14/ A3013 RMK AO1 SLP201 T0144 $





000
SAUS43 KDDC 191500
MTRP28
METAR KP28 191456Z AUTO 16007KT 12/ A3014 RMK AO1 SLP205 T0122 55001
$





000
SAUS43 KDDC 191400
MTRP28
METAR KP28 191356Z AUTO 15007KT 11/ A3014 RMK AO1 SLP204 T0111 $





000
SAUS43 KDDC 191300
MTRP28
METAR KP28 191256Z AUTO 16005KT 11/ A3013 RMK AO1 SLP201 T0106 $





000
SAUS43 KDDC 191200
MTRP28
METAR KP28 191156Z AUTO 15005KT 10/ A3014 RMK AO1 SLP205 T0100 10106
20078 56005 $





000
SAUS43 KDDC 191100
MTRP28
METAR KP28 191056Z AUTO 12005KT 10/ A3014 RMK AO1 SLP204 T0100 $





000
SAUS43 KDDC 191000
MTRP28
METAR KP28 190956Z AUTO 13005KT 10/ A3015 RMK AO1 SLP205 T0100 $





000
SAUS43 KDDC 191000
MTRP28
METAR KP28 190956Z AUTO 13005KT 10/ A3015 RMK AO1 SLP205 T0100 $





000
SAUS43 KDDC 190900
MTRP28
METAR KP28 190856Z AUTO 12003KT 10/ A3016 RMK AO1 SLP209 T0100 50000
$





000
SAUS43 KDDC 190800
MTRP28
METAR KP28 190756Z AUTO 00000KT 09/ A3017 RMK AO1 SLP213 T0089 $





000
SAUS43 KDDC 190700
MTRP28
METAR KP28 190656Z AUTO 00000KT 08/ A3016 RMK AO1 SLP212 T0083 $





000
SAUS43 KDDC 190600
MTRP28
METAR KP28 190556Z AUTO 00000KT 08/ A3016 RMK AO1 SLP210 T0083 10156
20083 401890061 58003 $





000
SAUS43 KDDC 190500
MTRP28
METAR KP28 190456Z AUTO 00000KT 11/ A3016 RMK AO1 SLP211 T0106 $





000
SAUS43 KDDC 190500
MTRP28
METAR KP28 190456Z AUTO 00000KT 11/ A3016 RMK AO1 SLP211 T0106 $





000
SAUS43 KDDC 190400
MTRP28
METAR KP28 190356Z AUTO 09004KT 11/ A3017 RMK AO1 SLP214 T0111 $





000
SAUS43 KDDC 190400
MTRP28
METAR KP28 190356Z AUTO 09004KT 11/ A3017 RMK AO1 SLP214 T0111 $





000
SAUS43 KDDC 190300
MTRP28
METAR KP28 190256Z AUTO 12004KT 12/ A3017 RMK AO1 SLP214 T0122 58001
$





000
SAUS43 KDDC 190200
MTRP28
METAR KP28 190156Z AUTO 12004KT 13/ A3017 RMK AO1 SLP217 T0128 $





000
SAUS43 KDDC 190100
MTRP28
METAR KP28 190056Z AUTO 12004KT 14/ A3017 RMK AO1 SLP219 T0139 $





000
SAUS43 KDDC 190000
MTRP28
METAR KP28 182356Z AUTO 12005KT 16/06 A3017 RMK AO1 SLP216 T01560061
10189 20156 56009





000
SAUS43 KDDC 182300
MTRP28
METAR KP28 182256Z AUTO 09003KT 18/06 A3018 RMK AO1 SLP216 T01830061





000
SAUS43 KDDC 182200
MTRP28
METAR KP28 182156Z AUTO 07006KT 18/06 A3018 RMK AO1 SLP217 T01830061





000
SAUS43 KDDC 182100
MTRP28
METAR KP28 182056Z AUTO 03004KT 18/05 A3019 RMK AO1 SLP222 T01780050
56017





000
SAUS43 KDDC 182000
MTRP28
METAR KP28 181956Z AUTO 08003KT 17/05 A3021 RMK AO1 SLP227 T01720050





000
SAUS43 KDDC 182000
MTRP28
METAR KP28 181956Z AUTO 08003KT 17/05 A3021 RMK AO1 SLP227 T01720050





000
SAUS43 KDDC 181900
MTRP28
METAR KP28 181856Z AUTO 00000KT 17/06 A3023 RMK AO1 SLP234 T01720061





000
SAUS43 KDDC 181800
MTRP28
METAR KP28 181756Z AUTO 00000KT 16/06 A3025 RMK AO1 SLP241 T01610056
10161 20061 58002





000
SAUS43 KDDC 181700
MTRP28
METAR KP28 181656Z AUTO 10003KT 14/06 A3026 RMK AO1 SLP245 T01440056





000
SAUS43 KDDC 181700
MTRP28
METAR KP28 181656Z AUTO 10003KT 14/06 A3026 RMK AO1 SLP245 T01440056





000
SAUS43 KDDC 181600
MTRP28
METAR KP28 181556Z AUTO 06008KT 13/06 A3026 RMK AO1 SLP245 T01330061





000
SAUS43 KDDC 181600
MTRP28
METAR KP28 181556Z AUTO 06008KT 13/06 A3026 RMK AO1 SLP245 T01330061





000
SAUS43 KDDC 181500
MTRP28
METAR KP28 181456Z AUTO 04006KT 12/06 A3026 RMK AO1 SLP244 T01170061
52015





000
SAUS43 KDDC 181500
MTRP28
METAR KP28 181456Z AUTO 04006KT 12/06 A3026 RMK AO1 SLP244 T01170061
52015





000
SAUS43 KDDC 181400
MTRP28
METAR KP28 181356Z AUTO 09/07 A3024 RMK AO1 SLP241 T00890067





000
SAUS43 KDDC 181300
MTRP28
METAR KP28 181256Z AUTO 34004KT 06/05 A3022 RMK AO1 SLP235 T00610050





000
SAUS43 KDDC 181200
MTRP28
METAR KP28 181156Z AUTO 01003KT 07/06 A3021 RMK AO1 SLP228 T00720056
10106 20072 53007





000
SAUS43 KDDC 181100
MTRP28
METAR KP28 181056Z AUTO 00000KT 08/06 A3020 RMK AO1 SLP222 T00780056





000
SAUS43 KDDC 181100
MTRP28
METAR KP28 181056Z AUTO 00000KT 08/06 A3020 RMK AO1 SLP222 T00780056





    US Dept of Commerce
    National Oceanic and Atmospheric Administration
    National Weather Service
    1325 East West Highway
    Silver Spring, MD 20910
    Page Author: NWS Internet Services Team
Disclaimer
Information Quality
Credits
Glossary
Privacy Policy
Freedom of Information Act (FOIA)
About Us
Career Opportunities